Swansea, United Kingdom
Current Conditions -  °F | °C
As of 1:50 PM on Monday 20 Oct 2014 (Local Time) from EGOP Reporting Station
Broken Clouds Broken Clouds  
Wind Chill: 57°   Ceiling: 4500
Heat Index: 57°   Visibility: 6mi
Dew Point: 52°   Wind: 24mph
Humidity: 82%   Direction: 260°W
Pressure: 29.97"   Gusts: NA
Location:  51.62°N, 3.94°W
Report Text: EGOP 201250Z 26021KT 9999 FEW020 BKN045 14/11 Q1015 BLU
Loading
Personal Weather Stations






























Interactive Weather Map
Tropical Storm Tracking
New forecast layout! Learn more

10-Day Weather Forecast

Advertisements
Track Severe Weather on mobile